sensor_id;sensor_type;location;lat;lon;timestamp;temperature;humidity
53286;DHT22;39171;45.550;12.074;2022-11-06T00:00:55;16.10;81.00
53286;DHT22;39171;45.550;12.074;2022-11-06T00:06:57;16.10;81.50
53286;DHT22;39171;45.550;12.074;2022-11-06T00:12:59;16.10;81.20
53286;DHT22;39171;45.550;12.074;2022-11-06T00:19:01;16.10;81.10
53286;DHT22;39171;45.550;12.074;2022-11-06T00:25:04;16.00;81.00
53286;DHT22;39171;45.550;12.074;2022-11-06T00:31:12;16.10;80.90
53286;DHT22;39171;45.550;12.074;2022-11-06T00:37:14;16.00;80.80
53286;DHT22;39171;45.550;12.074;2022-11-06T00:43:15;16.00;80.80
53286;DHT22;39171;45.550;12.074;2022-11-06T00:49:17;16.00;80.80
53286;DHT22;39171;45.550;12.074;2022-11-06T00:55:18;16.00;80.80
53286;DHT22;39171;45.550;12.074;2022-11-06T01:01:34;15.90;81.00
53286;DHT22;39171;45.550;12.074;2022-11-06T01:07:36;16.00;80.90
53286;DHT22;39171;45.550;12.074;2022-11-06T01:13:38;15.90;80.80
53286;DHT22;39171;45.550;12.074;2022-11-06T01:19:39;15.90;80.90
53286;DHT22;39171;45.550;12.074;2022-11-06T01:25:41;15.90;80.90
53286;DHT22;39171;45.550;12.074;2022-11-06T01:31:43;15.90;80.90
53286;DHT22;39171;45.550;12.074;2022-11-06T01:37:44;15.90;80.80
53286;DHT22;39171;45.550;12.074;2022-11-06T01:49:53;15.90;81.00
53286;DHT22;39171;45.550;12.074;2022-11-06T01:55:58;15.80;81.00
53286;DHT22;39171;45.550;12.074;2022-11-06T02:02:01;15.80;80.90
53286;DHT22;39171;45.550;12.074;2022-11-06T02:08:03;15.80;80.80
53286;DHT22;39171;45.550;12.074;2022-11-06T02:14:39;15.80;80.80
53286;DHT22;39171;45.550;12.074;2022-11-06T02:27:22;15.70;80.70
53286;DHT22;39171;45.550;12.074;2022-11-06T02:33:48;15.70;80.80
53286;DHT22;39171;45.550;12.074;2022-11-06T02:39:52;15.70;80.80
53286;DHT22;39171;45.550;12.074;2022-11-06T02:46:00;15.70;80.70
53286;DHT22;39171;45.550;12.074;2022-11-06T02:52:15;15.70;80.70
53286;DHT22;39171;45.550;12.074;2022-11-06T03:10:45;15.70;80.80
53286;DHT22;39171;45.550;12.074;2022-11-06T03:17:20;15.70;80.70
53286;DHT22;39171;45.550;12.074;2022-11-06T03:23:43;15.60;80.80
53286;DHT22;39171;45.550;12.074;2022-11-06T03:30:06;15.60;80.70
53286;DHT22;39171;45.550;12.074;2022-11-06T03:36:16;15.60;80.80
53286;DHT22;39171;45.550;12.074;2022-11-06T03:42:24;15.50;80.60
53286;DHT22;39171;45.550;12.074;2022-11-06T03:49:07;15.60;80.70
53286;DHT22;39171;45.550;12.074;2022-11-06T03:55:08;15.60;80.70
53286;DHT22;39171;45.550;12.074;2022-11-06T04:01:15;15.50;80.80
53286;DHT22;39171;45.550;12.074;2022-11-06T04:07:21;15.50;80.80
53286;DHT22;39171;45.550;12.074;2022-11-06T04:13:24;15.50;80.70
53286;DHT22;39171;45.550;12.074;2022-11-06T04:19:49;15.50;80.60
53286;DHT22;39171;45.550;12.074;2022-11-06T04:26:09;15.50;80.70
53286;DHT22;39171;45.550;12.074;2022-11-06T04:44:59;15.40;80.60
53286;DHT22;39171;45.550;12.074;2022-11-06T04:51:03;15.40;80.60
53286;DHT22;39171;45.550;12.074;2022-11-06T04:57:06;15.40;80.60
53286;DHT22;39171;45.550;12.074;2022-11-06T05:03:08;15.40;80.70
53286;DHT22;39171;45.550;12.074;2022-11-06T05:09:09;15.40;80.60
53286;DHT22;39171;45.550;12.074;2022-11-06T05:15:11;15.40;80.60
53286;DHT22;39171;45.550;12.074;2022-11-06T05:21:13;15.30;80.70
53286;DHT22;39171;45.550;12.074;2022-11-06T05:27:32;15.40;80.60
53286;DHT22;39171;45.550;12.074;2022-11-06T05:33:34;15.30;80.70
53286;DHT22;39171;45.550;12.074;2022-11-06T05:39:35;15.30;80.70
53286;DHT22;39171;45.550;12.074;2022-11-06T05:45:36;15.30;80.60
53286;DHT22;39171;45.550;12.074;2022-11-06T05:51:38;15.30;80.70
53286;DHT22;39171;45.550;12.074;2022-11-06T05:57:39;15.30;80.70
53286;DHT22;39171;45.550;12.074;2022-11-06T06:03:44;15.30;80.90
53286;DHT22;39171;45.550;12.074;2022-11-06T06:09:45;15.20;80.80
53286;DHT22;39171;45.550;12.074;2022-11-06T06:15:46;15.20;80.80
53286;DHT22;39171;45.550;12.074;2022-11-06T06:21:48;15.20;81.10
53286;DHT22;39171;45.550;12.074;2022-11-06T06:27:50;15.20;80.90
53286;DHT22;39171;45.550;12.074;2022-11-06T06:33:52;15.20;80.90
53286;DHT22;39171;45.550;12.074;2022-11-06T06:39:53;15.20;80.90
53286;DHT22;39171;45.550;12.074;2022-11-06T06:46:04;15.20;80.80
53286;DHT22;39171;45.550;12.074;2022-11-06T06:52:05;15.20;80.70
53286;DHT22;39171;45.550;12.074;2022-11-06T06:58:07;15.20;80.70
53286;DHT22;39171;45.550;12.074;2022-11-06T07:04:10;15.20;80.60
53286;DHT22;39171;45.550;12.074;2022-11-06T07:10:12;15.20;80.60
53286;DHT22;39171;45.550;12.074;2022-11-06T07:16:13;15.20;80.50
53286;DHT22;39171;45.550;12.074;2022-11-06T07:22:15;15.20;80.60
53286;DHT22;39171;45.550;12.074;2022-11-06T07:28:16;15.20;80.70
53286;DHT22;39171;45.550;12.074;2022-11-06T07:34:18;15.20;80.80
53286;DHT22;39171;45.550;12.074;2022-11-06T07:40:19;15.20;80.70
53286;DHT22;39171;45.550;12.074;2022-11-06T07:46:20;15.20;80.70
53286;DHT22;39171;45.550;12.074;2022-11-06T07:52:22;15.20;80.80
53286;DHT22;39171;45.550;12.074;2022-11-06T07:58:24;15.20;80.90
53286;DHT22;39171;45.550;12.074;2022-11-06T08:04:25;15.20;81.00
53286;DHT22;39171;45.550;12.074;2022-11-06T08:10:26;15.20;80.80
53286;DHT22;39171;45.550;12.074;2022-11-06T08:16:28;15.20;80.90
53286;DHT22;39171;45.550;12.074;2022-11-06T08:22:29;15.20;80.90
53286;DHT22;39171;45.550;12.074;2022-11-06T08:28:30;15.30;80.80
53286;DHT22;39171;45.550;12.074;2022-11-06T08:34:33;15.30;80.80
53286;DHT22;39171;45.550;12.074;2022-11-06T08:40:37;15.30;80.80
53286;DHT22;39171;45.550;12.074;2022-11-06T08:46:39;15.30;80.90
53286;DHT22;39171;45.550;12.074;2022-11-06T08:52:40;15.30;80.90
53286;DHT22;39171;45.550;12.074;2022-11-06T08:58:41;15.30;80.80
53286;DHT22;39171;45.550;12.074;2022-11-06T09:04:44;15.40;80.90
53286;DHT22;39171;45.550;12.074;2022-11-06T09:10:45;15.40;80.80
53286;DHT22;39171;45.550;12.074;2022-11-06T09:16:47;15.40;80.80
53286;DHT22;39171;45.550;12.074;2022-11-06T09:22:48;15.40;81.20
53286;DHT22;39171;45.550;12.074;2022-11-06T09:28:49;15.40;80.90
53286;DHT22;39171;45.550;12.074;2022-11-06T09:34:51;15.40;81.10
53286;DHT22;39171;45.550;12.074;2022-11-06T09:40:54;15.50;80.80
53286;DHT22;39171;45.550;12.074;2022-11-06T09:46:58;15.50;80.90
53286;DHT22;39171;45.550;12.074;2022-11-06T09:53:05;15.50;80.80
53286;DHT22;39171;45.550;12.074;2022-11-06T09:59:14;15.50;80.50
53286;DHT22;39171;45.550;12.074;2022-11-06T10:05:26;15.50;80.50
53286;DHT22;39171;45.550;12.074;2022-11-06T10:17:57;15.60;80.60
53286;DHT22;39171;45.550;12.074;2022-11-06T10:24:10;15.50;80.70
53286;DHT22;39171;45.550;12.074;2022-11-06T10:30:16;15.60;80.40
53286;DHT22;39171;45.550;12.074;2022-11-06T10:36:49;15.50;80.60
53286;DHT22;39171;45.550;12.074;2022-11-06T11:02:34;15.60;80.40
53286;DHT22;39171;45.550;12.074;2022-11-06T11:08:47;15.70;80.20
53286;DHT22;39171;45.550;12.074;2022-11-06T11:21:23;15.70;80.30
53286;DHT22;39171;45.550;12.074;2022-11-06T11:27:25;15.60;80.10
53286;DHT22;39171;45.550;12.074;2022-11-06T11:33:27;15.70;80.00
53286;DHT22;39171;45.550;12.074;2022-11-06T11:39:35;15.70;80.50
53286;DHT22;39171;45.550;12.074;2022-11-06T11:45:37;15.70;80.30
53286;DHT22;39171;45.550;12.074;2022-11-06T11:51:43;15.70;79.80
53286;DHT22;39171;45.550;12.074;2022-11-06T11:57:47;15.70;79.60
53286;DHT22;39171;45.550;12.074;2022-11-06T12:03:50;15.70;79.10
53286;DHT22;39171;45.550;12.074;2022-11-06T12:09:52;15.70;79.00
53286;DHT22;39171;45.550;12.074;2022-11-06T12:22:14;15.70;79.00
53286;DHT22;39171;45.550;12.074;2022-11-06T12:28:18;15.70;79.50
53286;DHT22;39171;45.550;12.074;2022-11-06T12:34:34;15.70;79.10
53286;DHT22;39171;45.550;12.074;2022-11-06T12:40:40;15.70;78.90
53286;DHT22;39171;45.550;12.074;2022-11-06T12:53:27;15.70;79.50
53286;DHT22;39171;45.550;12.074;2022-11-06T13:18:50;15.80;79.20
53286;DHT22;39171;45.550;12.074;2022-11-06T13:31:12;15.70;78.90
53286;DHT22;39171;45.550;12.074;2022-11-06T13:37:19;15.80;78.80
53286;DHT22;39171;45.550;12.074;2022-11-06T13:43:43;15.70;78.70
53286;DHT22;39171;45.550;12.074;2022-11-06T13:50:06;15.70;78.60
53286;DHT22;39171;45.550;12.074;2022-11-06T13:56:35;15.80;78.50
53286;DHT22;39171;45.550;12.074;2022-11-06T14:09:08;15.80;78.30
53286;DHT22;39171;45.550;12.074;2022-11-06T14:15:35;15.80;78.20
53286;DHT22;39171;45.550;12.074;2022-11-06T14:21:54;15.80;78.00
53286;DHT22;39171;45.550;12.074;2022-11-06T14:28:37;15.80;77.90
53286;DHT22;39171;45.550;12.074;2022-11-06T14:34:40;15.80;77.90
53286;DHT22;39171;45.550;12.074;2022-11-06T14:40:43;15.80;77.80
53286;DHT22;39171;45.550;12.074;2022-11-06T14:46:54;15.80;77.80
53286;DHT22;39171;45.550;12.074;2022-11-06T14:53:00;15.80;77.80
53286;DHT22;39171;45.550;12.074;2022-11-06T14:59:06;15.80;77.70
53286;DHT22;39171;45.550;12.074;2022-11-06T15:05:15;15.80;77.70
53286;DHT22;39171;45.550;12.074;2022-11-06T15:17:42;15.80;77.80
53286;DHT22;39171;45.550;12.074;2022-11-06T15:24:05;15.80;77.80
53286;DHT22;39171;45.550;12.074;2022-11-06T15:30:13;15.80;77.90
53286;DHT22;39171;45.550;12.074;2022-11-06T15:36:17;15.80;78.10
53286;DHT22;39171;45.550;12.074;2022-11-06T15:42:25;15.80;78.30
53286;DHT22;39171;45.550;12.074;2022-11-06T15:48:27;15.90;78.40
53286;DHT22;39171;45.550;12.074;2022-11-06T15:54:38;15.90;78.50
53286;DHT22;39171;45.550;12.074;2022-11-06T16:00:40;15.90;78.50
53286;DHT22;39171;45.550;12.074;2022-11-06T16:06:42;15.90;78.60
53286;DHT22;39171;45.550;12.074;2022-11-06T16:12:46;15.80;78.70
53286;DHT22;39171;45.550;12.074;2022-11-06T16:18:47;15.80;78.80
53286;DHT22;39171;45.550;12.074;2022-11-06T16:24:56;15.80;78.80
53286;DHT22;39171;45.550;12.074;2022-11-06T16:31:05;15.80;78.70
53286;DHT22;39171;45.550;12.074;2022-11-06T16:43:29;15.80;78.80
53286;DHT22;39171;45.550;12.074;2022-11-06T16:49:36;15.80;78.90
53286;DHT22;39171;45.550;12.074;2022-11-06T16:55:38;15.80;78.90
53286;DHT22;39171;45.550;12.074;2022-11-06T17:01:45;15.80;78.80
53286;DHT22;39171;45.550;12.074;2022-11-06T17:14:23;15.80;78.90
53286;DHT22;39171;45.550;12.074;2022-11-06T17:20:24;15.80;78.90
53286;DHT22;39171;45.550;12.074;2022-11-06T17:26:28;15.80;78.90
53286;DHT22;39171;45.550;12.074;2022-11-06T17:32:30;15.80;78.90
53286;DHT22;39171;45.550;12.074;2022-11-06T17:38:31;15.70;79.00
53286;DHT22;39171;45.550;12.074;2022-11-06T17:44:33;15.70;79.00
53286;DHT22;39171;45.550;12.074;2022-11-06T17:50:34;15.80;78.90
53286;DHT22;39171;45.550;12.074;2022-11-06T17:56:57;15.70;79.00
53286;DHT22;39171;45.550;12.074;2022-11-06T18:02:58;15.70;79.00
53286;DHT22;39171;45.550;12.074;2022-11-06T18:09:03;15.70;79.00
53286;DHT22;39171;45.550;12.074;2022-11-06T18:15:06;15.70;79.00
53286;DHT22;39171;45.550;12.074;2022-11-06T18:21:07;15.70;79.10
53286;DHT22;39171;45.550;12.074;2022-11-06T18:27:09;15.70;79.10
53286;DHT22;39171;45.550;12.074;2022-11-06T18:33:10;15.70;78.90
53286;DHT22;39171;45.550;12.074;2022-11-06T18:39:11;15.70;79.00
53286;DHT22;39171;45.550;12.074;2022-11-06T18:45:13;15.70;79.00
53286;DHT22;39171;45.550;12.074;2022-11-06T18:51:20;15.70;79.00
53286;DHT22;39171;45.550;12.074;2022-11-06T18:57:22;15.60;79.00
53286;DHT22;39171;45.550;12.074;2022-11-06T19:03:24;15.60;79.00
53286;DHT22;39171;45.550;12.074;2022-11-06T19:09:26;15.70;79.10
53286;DHT22;39171;45.550;12.074;2022-11-06T19:15:28;15.60;79.10
53286;DHT22;39171;45.550;12.074;2022-11-06T19:21:30;15.70;79.10
53286;DHT22;39171;45.550;12.074;2022-11-06T19:27:32;15.60;79.00
53286;DHT22;39171;45.550;12.074;2022-11-06T19:33:34;15.60;79.00
53286;DHT22;39171;45.550;12.074;2022-11-06T19:39:36;15.60;79.00
53286;DHT22;39171;45.550;12.074;2022-11-06T19:45:37;15.60;78.90
53286;DHT22;39171;45.550;12.074;2022-11-06T19:51:39;15.60;78.90
53286;DHT22;39171;45.550;12.074;2022-11-06T19:57:43;15.60;79.10
53286;DHT22;39171;45.550;12.074;2022-11-06T20:03:45;15.60;79.00
53286;DHT22;39171;45.550;12.074;2022-11-06T20:09:47;15.60;79.10
53286;DHT22;39171;45.550;12.074;2022-11-06T20:15:48;15.60;79.50
53286;DHT22;39171;45.550;12.074;2022-11-06T20:21:50;15.60;79.60
53286;DHT22;39171;45.550;12.074;2022-11-06T20:27:52;15.60;79.50
53286;DHT22;39171;45.550;12.074;2022-11-06T20:33:53;15.60;79.50
53286;DHT22;39171;45.550;12.074;2022-11-06T20:39:57;15.50;79.50
53286;DHT22;39171;45.550;12.074;2022-11-06T20:45:59;15.60;79.50
53286;DHT22;39171;45.550;12.074;2022-11-06T20:52:01;15.60;79.40
53286;DHT22;39171;45.550;12.074;2022-11-06T20:58:02;15.50;79.40
53286;DHT22;39171;45.550;12.074;2022-11-06T21:04:04;15.50;79.40
53286;DHT22;39171;45.550;12.074;2022-11-06T21:10:07;15.50;79.30
53286;DHT22;39171;45.550;12.074;2022-11-06T21:16:32;15.50;79.30
53286;DHT22;39171;45.550;12.074;2022-11-06T21:22:34;15.50;79.30
53286;DHT22;39171;45.550;12.074;2022-11-06T21:28:36;15.50;79.40
53286;DHT22;39171;45.550;12.074;2022-11-06T21:34:38;15.50;79.40
53286;DHT22;39171;45.550;12.074;2022-11-06T21:40:40;15.50;79.40
53286;DHT22;39171;45.550;12.074;2022-11-06T21:46:42;15.40;79.40
53286;DHT22;39171;45.550;12.074;2022-11-06T21:52:44;15.40;79.40
53286;DHT22;39171;45.550;12.074;2022-11-06T21:59:07;15.40;79.40
53286;DHT22;39171;45.550;12.074;2022-11-06T22:05:09;15.40;79.50
53286;DHT22;39171;45.550;12.074;2022-11-06T22:11:15;15.40;79.60
53286;DHT22;39171;45.550;12.074;2022-11-06T22:17:16;15.40;79.60
53286;DHT22;39171;45.550;12.074;2022-11-06T22:23:18;15.40;79.50
53286;DHT22;39171;45.550;12.074;2022-11-06T22:29:19;15.40;79.70
53286;DHT22;39171;45.550;12.074;2022-11-06T22:35:21;15.30;79.60
53286;DHT22;39171;45.550;12.074;2022-11-06T22:41:23;15.40;79.60
53286;DHT22;39171;45.550;12.074;2022-11-06T22:47:25;15.30;79.60
53286;DHT22;39171;45.550;12.074;2022-11-06T22:53:26;15.30;79.60
53286;DHT22;39171;45.550;12.074;2022-11-06T22:59:28;15.30;79.70
53286;DHT22;39171;45.550;12.074;2022-11-06T23:05:30;15.30;79.60
53286;DHT22;39171;45.550;12.074;2022-11-06T23:11:32;15.30;79.60
53286;DHT22;39171;45.550;12.074;2022-11-06T23:17:34;15.30;79.70
53286;DHT22;39171;45.550;12.074;2022-11-06T23:23:36;15.20;79.70
53286;DHT22;39171;45.550;12.074;2022-11-06T23:29:37;15.20;79.60
53286;DHT22;39171;45.550;12.074;2022-11-06T23:35:39;15.20;79.70
53286;DHT22;39171;45.550;12.074;2022-11-06T23:41:41;15.20;79.80
53286;DHT22;39171;45.550;12.074;2022-11-06T23:47:47;15.20;79.90
53286;DHT22;39171;45.550;12.074;2022-11-06T23:53:49;15.20;79.90
53286;DHT22;39171;45.550;12.074;2022-11-06T23:59:50;15.20;79.80
